sensor_id;sensor_type;location;lat;lon;timestamp;temperature;humidity
11540;DHT22;5826;54.756;9.192;2022-08-20T00:01:31;19.80;99.90
11540;DHT22;5826;54.756;9.192;2022-08-20T00:03:57;19.80;99.90
11540;DHT22;5826;54.756;9.192;2022-08-20T00:06:23;19.80;99.90
11540;DHT22;5826;54.756;9.192;2022-08-20T00:08:49;19.70;99.90
11540;DHT22;5826;54.756;9.192;2022-08-20T00:11:18;19.70;99.90
11540;DHT22;5826;54.756;9.192;2022-08-20T00:13:51;19.70;99.90
11540;DHT22;5826;54.756;9.192;2022-08-20T00:16:19;19.60;99.90
11540;DHT22;5826;54.756;9.192;2022-08-20T00:18:45;19.60;99.90
11540;DHT22;5826;54.756;9.192;2022-08-20T00:21:13;19.60;99.90
11540;DHT22;5826;54.756;9.192;2022-08-20T00:23:41;19.60;99.90
11540;DHT22;5826;54.756;9.192;2022-08-20T00:26:07;19.60;99.90
11540;DHT22;5826;54.756;9.192;2022-08-20T00:28:33;19.60;99.90
11540;DHT22;5826;54.756;9.192;2022-08-20T00:31:02;19.60;99.90
11540;DHT22;5826;54.756;9.192;2022-08-20T00:33:28;19.60;99.90
11540;DHT22;5826;54.756;9.192;2022-08-20T00:35:54;19.60;99.90
11540;DHT22;5826;54.756;9.192;2022-08-20T00:38:24;19.70;99.90
11540;DHT22;5826;54.756;9.192;2022-08-20T00:40:54;19.70;99.90
11540;DHT22;5826;54.756;9.192;2022-08-20T00:43:44;19.70;99.90
11540;DHT22;5826;54.756;9.192;2022-08-20T00:46:17;19.80;99.90
11540;DHT22;5826;54.756;9.192;2022-08-20T00:48:46;19.80;99.90
11540;DHT22;5826;54.756;9.192;2022-08-20T00:51:53;19.70;99.90
11540;DHT22;5826;54.756;9.192;2022-08-20T00:57:01;19.70;99.90
11540;DHT22;5826;54.756;9.192;2022-08-20T00:59:32;19.70;99.90
11540;DHT22;5826;54.756;9.192;2022-08-20T01:02:00;19.60;99.90
11540;DHT22;5826;54.756;9.192;2022-08-20T01:04:28;19.60;99.90
11540;DHT22;5826;54.756;9.192;2022-08-20T01:06:54;19.60;99.90
11540;DHT22;5826;54.756;9.192;2022-08-20T01:09:21;19.50;99.90
11540;DHT22;5826;54.756;9.192;2022-08-20T01:11:46;19.50;99.90
11540;DHT22;5826;54.756;9.192;2022-08-20T01:14:14;19.50;99.90
11540;DHT22;5826;54.756;9.192;2022-08-20T01:17:00;19.50;99.90
11540;DHT22;5826;54.756;9.192;2022-08-20T01:19:34;19.50;99.90
11540;DHT22;5826;54.756;9.192;2022-08-20T01:22:01;19.50;99.90
11540;DHT22;5826;54.756;9.192;2022-08-20T01:24:50;19.50;99.90
11540;DHT22;5826;54.756;9.192;2022-08-20T01:27:18;19.50;99.90
11540;DHT22;5826;54.756;9.192;2022-08-20T01:29:44;19.40;99.90
11540;DHT22;5826;54.756;9.192;2022-08-20T01:32:10;19.40;99.90
11540;DHT22;5826;54.756;9.192;2022-08-20T01:34:35;19.40;99.90
11540;DHT22;5826;54.756;9.192;2022-08-20T01:37:01;19.40;99.90
11540;DHT22;5826;54.756;9.192;2022-08-20T01:39:29;19.40;99.90
11540;DHT22;5826;54.756;9.192;2022-08-20T01:42:10;19.40;99.90
11540;DHT22;5826;54.756;9.192;2022-08-20T01:44:39;19.50;99.90
11540;DHT22;5826;54.756;9.192;2022-08-20T01:47:13;19.50;99.90
11540;DHT22;5826;54.756;9.192;2022-08-20T01:49:42;19.50;99.90
11540;DHT22;5826;54.756;9.192;2022-08-20T01:52:12;19.60;99.90
11540;DHT22;5826;54.756;9.192;2022-08-20T01:54:39;19.60;99.90
11540;DHT22;5826;54.756;9.192;2022-08-20T01:57:11;19.60;99.90
11540;DHT22;5826;54.756;9.192;2022-08-20T01:59:37;19.60;99.90
11540;DHT22;5826;54.756;9.192;2022-08-20T02:02:03;19.60;99.90
11540;DHT22;5826;54.756;9.192;2022-08-20T02:04:31;19.60;99.90
11540;DHT22;5826;54.756;9.192;2022-08-20T02:06:59;19.60;99.90
11540;DHT22;5826;54.756;9.192;2022-08-20T02:09:32;19.50;99.90
11540;DHT22;5826;54.756;9.192;2022-08-20T02:11:58;19.50;99.90
11540;DHT22;5826;54.756;9.192;2022-08-20T02:14:25;19.50;99.90
11540;DHT22;5826;54.756;9.192;2022-08-20T02:16:51;19.50;99.90
11540;DHT22;5826;54.756;9.192;2022-08-20T02:19:40;19.50;99.90
11540;DHT22;5826;54.756;9.192;2022-08-20T02:22:13;19.50;99.90
11540;DHT22;5826;54.756;9.192;2022-08-20T02:24:41;19.40;99.90
11540;DHT22;5826;54.756;9.192;2022-08-20T02:27:07;19.40;99.90
11540;DHT22;5826;54.756;9.192;2022-08-20T02:29:33;19.40;99.90
11540;DHT22;5826;54.756;9.192;2022-08-20T02:31:59;19.40;99.90
11540;DHT22;5826;54.756;9.192;2022-08-20T02:34:24;19.30;99.90
11540;DHT22;5826;54.756;9.192;2022-08-20T02:36:50;19.30;99.90
11540;DHT22;5826;54.756;9.192;2022-08-20T02:39:15;19.30;99.90
11540;DHT22;5826;54.756;9.192;2022-08-20T02:41:41;19.30;99.90
11540;DHT22;5826;54.756;9.192;2022-08-20T02:44:07;19.30;99.90
11540;DHT22;5826;54.756;9.192;2022-08-20T02:46:33;19.30;99.90
11540;DHT22;5826;54.756;9.192;2022-08-20T02:48:59;19.30;99.90
11540;DHT22;5826;54.756;9.192;2022-08-20T02:51:26;19.20;99.90
11540;DHT22;5826;54.756;9.192;2022-08-20T02:53:51;19.10;99.90
11540;DHT22;5826;54.756;9.192;2022-08-20T02:56:17;19.10;99.90
11540;DHT22;5826;54.756;9.192;2022-08-20T02:58:44;19.10;99.90
11540;DHT22;5826;54.756;9.192;2022-08-20T03:01:12;19.00;99.90
11540;DHT22;5826;54.756;9.192;2022-08-20T03:03:39;19.10;99.90
11540;DHT22;5826;54.756;9.192;2022-08-20T03:06:05;19.10;99.90
11540;DHT22;5826;54.756;9.192;2022-08-20T03:08:32;19.10;99.90
11540;DHT22;5826;54.756;9.192;2022-08-20T03:10:58;19.00;99.90
11540;DHT22;5826;54.756;9.192;2022-08-20T03:13:23;19.10;99.90
11540;DHT22;5826;54.756;9.192;2022-08-20T03:15:53;19.00;99.90
11540;DHT22;5826;54.756;9.192;2022-08-20T03:18:20;19.10;99.90
11540;DHT22;5826;54.756;9.192;2022-08-20T03:20:46;19.00;99.90
11540;DHT22;5826;54.756;9.192;2022-08-20T03:23:13;19.10;99.90
11540;DHT22;5826;54.756;9.192;2022-08-20T03:25:38;19.00;99.90
11540;DHT22;5826;54.756;9.192;2022-08-20T03:28:04;19.00;99.90
11540;DHT22;5826;54.756;9.192;2022-08-20T03:30:30;19.10;99.90
11540;DHT22;5826;54.756;9.192;2022-08-20T03:32:57;19.10;99.90
11540;DHT22;5826;54.756;9.192;2022-08-20T03:35:24;19.10;99.90
11540;DHT22;5826;54.756;9.192;2022-08-20T03:37:50;19.10;99.90
11540;DHT22;5826;54.756;9.192;2022-08-20T03:40:20;19.10;99.90
11540;DHT22;5826;54.756;9.192;2022-08-20T03:42:45;19.10;99.90
11540;DHT22;5826;54.756;9.192;2022-08-20T03:45:12;19.10;99.90
11540;DHT22;5826;54.756;9.192;2022-08-20T03:47:39;19.00;99.90
11540;DHT22;5826;54.756;9.192;2022-08-20T03:50:07;19.00;99.90
11540;DHT22;5826;54.756;9.192;2022-08-20T03:52:33;19.00;99.90
11540;DHT22;5826;54.756;9.192;2022-08-20T03:54:58;19.00;99.90
11540;DHT22;5826;54.756;9.192;2022-08-20T03:57:24;19.00;99.90
11540;DHT22;5826;54.756;9.192;2022-08-20T03:59:49;19.00;99.90
11540;DHT22;5826;54.756;9.192;2022-08-20T04:02:16;18.90;99.90
11540;DHT22;5826;54.756;9.192;2022-08-20T04:04:41;18.90;99.90
11540;DHT22;5826;54.756;9.192;2022-08-20T04:07:09;18.90;99.90
11540;DHT22;5826;54.756;9.192;2022-08-20T04:09:36;18.90;99.90
11540;DHT22;5826;54.756;9.192;2022-08-20T04:12:03;18.80;99.90
11540;DHT22;5826;54.756;9.192;2022-08-20T04:14:28;18.80;99.90
11540;DHT22;5826;54.756;9.192;2022-08-20T04:16:54;18.80;99.90
11540;DHT22;5826;54.756;9.192;2022-08-20T04:19:19;18.80;99.90
11540;DHT22;5826;54.756;9.192;2022-08-20T04:21:45;18.80;99.90
11540;DHT22;5826;54.756;9.192;2022-08-20T04:24:12;18.70;99.90
11540;DHT22;5826;54.756;9.192;2022-08-20T04:26:40;18.70;99.90
11540;DHT22;5826;54.756;9.192;2022-08-20T04:29:06;18.70;99.90
11540;DHT22;5826;54.756;9.192;2022-08-20T04:31:31;18.70;99.90
11540;DHT22;5826;54.756;9.192;2022-08-20T04:34:01;18.70;99.90
11540;DHT22;5826;54.756;9.192;2022-08-20T04:36:28;18.70;99.90
11540;DHT22;5826;54.756;9.192;2022-08-20T04:38:53;18.70;99.90
11540;DHT22;5826;54.756;9.192;2022-08-20T04:41:20;18.70;99.90
11540;DHT22;5826;54.756;9.192;2022-08-20T04:43:46;18.70;99.90
11540;DHT22;5826;54.756;9.192;2022-08-20T04:46:11;18.70;99.90
11540;DHT22;5826;54.756;9.192;2022-08-20T04:48:38;18.70;99.90
11540;DHT22;5826;54.756;9.192;2022-08-20T04:51:06;18.70;99.90
11540;DHT22;5826;54.756;9.192;2022-08-20T04:53:32;18.70;99.90
11540;DHT22;5826;54.756;9.192;2022-08-20T04:56:00;18.70;99.90
11540;DHT22;5826;54.756;9.192;2022-08-20T04:58:33;18.70;99.90
11540;DHT22;5826;54.756;9.192;2022-08-20T05:01:04;18.60;99.90
11540;DHT22;5826;54.756;9.192;2022-08-20T05:03:30;18.60;99.90
11540;DHT22;5826;54.756;9.192;2022-08-20T05:05:57;18.60;99.90
11540;DHT22;5826;54.756;9.192;2022-08-20T05:08:23;18.60;99.90
11540;DHT22;5826;54.756;9.192;2022-08-20T05:10:50;18.60;99.90
11540;DHT22;5826;54.756;9.192;2022-08-20T05:13:17;18.60;99.90
11540;DHT22;5826;54.756;9.192;2022-08-20T05:15:43;18.60;99.90
11540;DHT22;5826;54.756;9.192;2022-08-20T05:18:18;18.60;99.90
11540;DHT22;5826;54.756;9.192;2022-08-20T05:20:45;18.60;99.90
11540;DHT22;5826;54.756;9.192;2022-08-20T05:23:12;18.70;99.90
11540;DHT22;5826;54.756;9.192;2022-08-20T05:25:40;18.70;99.90
11540;DHT22;5826;54.756;9.192;2022-08-20T05:28:13;18.70;99.90
11540;DHT22;5826;54.756;9.192;2022-08-20T05:30:43;18.70;99.90
11540;DHT22;5826;54.756;9.192;2022-08-20T05:33:10;18.70;99.90
11540;DHT22;5826;54.756;9.192;2022-08-20T05:35:38;18.80;99.90
11540;DHT22;5826;54.756;9.192;2022-08-20T05:38:09;18.80;99.90
11540;DHT22;5826;54.756;9.192;2022-08-20T05:40:37;18.80;99.90
11540;DHT22;5826;54.756;9.192;2022-08-20T05:43:02;18.80;99.90
11540;DHT22;5826;54.756;9.192;2022-08-20T05:45:32;18.90;99.90
11540;DHT22;5826;54.756;9.192;2022-08-20T05:48:02;18.90;99.90
11540;DHT22;5826;54.756;9.192;2022-08-20T05:50:28;18.90;99.90
11540;DHT22;5826;54.756;9.192;2022-08-20T05:52:53;19.60;99.90
11540;DHT22;5826;54.756;9.192;2022-08-20T05:55:20;19.00;99.90
11540;DHT22;5826;54.756;9.192;2022-08-20T05:57:48;18.90;99.90
11540;DHT22;5826;54.756;9.192;2022-08-20T06:00:14;18.90;99.90
11540;DHT22;5826;54.756;9.192;2022-08-20T06:02:40;18.90;99.90
11540;DHT22;5826;54.756;9.192;2022-08-20T06:05:25;18.90;99.90
11540;DHT22;5826;54.756;9.192;2022-08-20T06:07:52;18.90;99.90
11540;DHT22;5826;54.756;9.192;2022-08-20T06:10:18;19.00;99.90
11540;DHT22;5826;54.756;9.192;2022-08-20T06:12:43;19.00;99.90
11540;DHT22;5826;54.756;9.192;2022-08-20T06:15:10;19.10;99.90
11540;DHT22;5826;54.756;9.192;2022-08-20T06:17:36;19.10;99.90
11540;DHT22;5826;54.756;9.192;2022-08-20T06:20:05;19.20;99.90
11540;DHT22;5826;54.756;9.192;2022-08-20T06:22:31;19.30;99.90
11540;DHT22;5826;54.756;9.192;2022-08-20T06:24:57;19.30;99.90
11540;DHT22;5826;54.756;9.192;2022-08-20T06:27:24;19.50;99.90
11540;DHT22;5826;54.756;9.192;2022-08-20T06:29:51;19.50;99.90
11540;DHT22;5826;54.756;9.192;2022-08-20T06:32:17;19.60;99.90
11540;DHT22;5826;54.756;9.192;2022-08-20T06:34:44;19.60;99.90
11540;DHT22;5826;54.756;9.192;2022-08-20T06:37:14;19.70;99.90
11540;DHT22;5826;54.756;9.192;2022-08-20T06:39:40;19.80;99.90
11540;DHT22;5826;54.756;9.192;2022-08-20T06:42:06;19.80;99.90
11540;DHT22;5826;54.756;9.192;2022-08-20T06:44:31;19.90;99.90
11540;DHT22;5826;54.756;9.192;2022-08-20T06:47:00;20.00;99.90
11540;DHT22;5826;54.756;9.192;2022-08-20T06:49:28;20.10;99.90
11540;DHT22;5826;54.756;9.192;2022-08-20T06:51:53;20.10;99.90
11540;DHT22;5826;54.756;9.192;2022-08-20T06:54:19;20.10;99.90
11540;DHT22;5826;54.756;9.192;2022-08-20T06:56:44;20.20;99.90
11540;DHT22;5826;54.756;9.192;2022-08-20T06:59:10;20.30;99.90
11540;DHT22;5826;54.756;9.192;2022-08-20T07:01:35;20.30;99.90
11540;DHT22;5826;54.756;9.192;2022-08-20T07:04:01;20.30;99.90
11540;DHT22;5826;54.756;9.192;2022-08-20T07:06:26;20.30;99.90
11540;DHT22;5826;54.756;9.192;2022-08-20T07:08:53;20.30;99.90
11540;DHT22;5826;54.756;9.192;2022-08-20T07:11:19;20.30;99.90
11540;DHT22;5826;54.756;9.192;2022-08-20T07:13:45;20.40;99.90
11540;DHT22;5826;54.756;9.192;2022-08-20T07:16:10;20.50;99.90
11540;DHT22;5826;54.756;9.192;2022-08-20T07:18:36;20.60;99.90
11540;DHT22;5826;54.756;9.192;2022-08-20T07:21:01;20.70;99.90
11540;DHT22;5826;54.756;9.192;2022-08-20T07:23:27;20.80;99.90
11540;DHT22;5826;54.756;9.192;2022-08-20T07:25:53;20.90;99.90
11540;DHT22;5826;54.756;9.192;2022-08-20T07:28:22;21.10;99.90
11540;DHT22;5826;54.756;9.192;2022-08-20T07:30:49;21.20;99.90
11540;DHT22;5826;54.756;9.192;2022-08-20T07:33:34;21.30;99.90
11540;DHT22;5826;54.756;9.192;2022-08-20T07:36:00;21.40;99.90
11540;DHT22;5826;54.756;9.192;2022-08-20T07:38:29;21.40;99.90
11540;DHT22;5826;54.756;9.192;2022-08-20T07:40:58;21.50;99.90
11540;DHT22;5826;54.756;9.192;2022-08-20T07:43:24;21.50;99.90
11540;DHT22;5826;54.756;9.192;2022-08-20T07:45:54;21.60;99.90
11540;DHT22;5826;54.756;9.192;2022-08-20T07:48:23;21.60;99.90
11540;DHT22;5826;54.756;9.192;2022-08-20T07:50:54;21.50;99.90
11540;DHT22;5826;54.756;9.192;2022-08-20T07:53:19;21.50;99.90
11540;DHT22;5826;54.756;9.192;2022-08-20T07:55:45;21.40;99.90
11540;DHT22;5826;54.756;9.192;2022-08-20T07:58:13;21.40;99.90
11540;DHT22;5826;54.756;9.192;2022-08-20T08:00:40;21.30;99.90
11540;DHT22;5826;54.756;9.192;2022-08-20T08:03:06;21.10;99.90
11540;DHT22;5826;54.756;9.192;2022-08-20T08:05:34;21.00;99.90
11540;DHT22;5826;54.756;9.192;2022-08-20T08:08:01;21.00;99.90
11540;DHT22;5826;54.756;9.192;2022-08-20T08:10:27;21.00;99.90
11540;DHT22;5826;54.756;9.192;2022-08-20T08:12:56;21.10;99.90
11540;DHT22;5826;54.756;9.192;2022-08-20T08:15:28;21.30;99.90
11540;DHT22;5826;54.756;9.192;2022-08-20T08:17:59;21.40;99.90
11540;DHT22;5826;54.756;9.192;2022-08-20T08:20:26;21.50;99.90
11540;DHT22;5826;54.756;9.192;2022-08-20T08:22:51;21.60;99.90
11540;DHT22;5826;54.756;9.192;2022-08-20T08:25:18;21.70;99.90
11540;DHT22;5826;54.756;9.192;2022-08-20T08:27:44;21.80;99.90
11540;DHT22;5826;54.756;9.192;2022-08-20T08:30:13;21.80;99.90
11540;DHT22;5826;54.756;9.192;2022-08-20T08:32:39;21.70;99.90
11540;DHT22;5826;54.756;9.192;2022-08-20T08:35:25;21.80;99.90
11540;DHT22;5826;54.756;9.192;2022-08-20T08:37:51;21.60;99.90
11540;DHT22;5826;54.756;9.192;2022-08-20T08:40:19;22.90;99.90
11540;DHT22;5826;54.756;9.192;2022-08-20T08:42:51;21.50;99.90
11540;DHT22;5826;54.756;9.192;2022-08-20T08:45:24;21.60;99.90
11540;DHT22;5826;54.756;9.192;2022-08-20T08:47:51;21.70;99.90
11540;DHT22;5826;54.756;9.192;2022-08-20T08:50:25;21.90;99.90
11540;DHT22;5826;54.756;9.192;2022-08-20T08:52:53;22.00;99.90
11540;DHT22;5826;54.756;9.192;2022-08-20T08:55:24;22.20;99.90
11540;DHT22;5826;54.756;9.192;2022-08-20T08:57:55;22.30;99.90
11540;DHT22;5826;54.756;9.192;2022-08-20T09:00:23;22.30;99.90
11540;DHT22;5826;54.756;9.192;2022-08-20T09:02:59;22.30;99.90
11540;DHT22;5826;54.756;9.192;2022-08-20T09:05:30;22.50;99.90
11540;DHT22;5826;54.756;9.192;2022-08-20T09:07:57;22.60;99.90
11540;DHT22;5826;54.756;9.192;2022-08-20T09:10:25;22.70;99.90
11540;DHT22;5826;54.756;9.192;2022-08-20T09:12:50;22.80;99.90
11540;DHT22;5826;54.756;9.192;2022-08-20T09:15:16;22.80;99.90
11540;DHT22;5826;54.756;9.192;2022-08-20T09:17:42;22.90;99.90
11540;DHT22;5826;54.756;9.192;2022-08-20T09:20:07;23.00;99.90
11540;DHT22;5826;54.756;9.192;2022-08-20T09:22:35;23.00;99.90
11540;DHT22;5826;54.756;9.192;2022-08-20T09:25:00;23.00;99.90
11540;DHT22;5826;54.756;9.192;2022-08-20T09:27:28;23.00;99.90
11540;DHT22;5826;54.756;9.192;2022-08-20T09:29:53;23.00;99.90
11540;DHT22;5826;54.756;9.192;2022-08-20T09:32:22;23.00;99.90
11540;DHT22;5826;54.756;9.192;2022-08-20T09:34:51;23.00;99.90
11540;DHT22;5826;54.756;9.192;2022-08-20T09:37:20;22.80;99.90
11540;DHT22;5826;54.756;9.192;2022-08-20T09:39:46;22.70;99.90
11540;DHT22;5826;54.756;9.192;2022-08-20T09:42:16;22.80;99.90
11540;DHT22;5826;54.756;9.192;2022-08-20T09:44:42;22.80;99.90
11540;DHT22;5826;54.756;9.192;2022-08-20T09:47:08;22.70;99.90
11540;DHT22;5826;54.756;9.192;2022-08-20T09:49:34;22.90;99.90
11540;DHT22;5826;54.756;9.192;2022-08-20T09:52:02;23.00;99.90
11540;DHT22;5826;54.756;9.192;2022-08-20T09:54:29;23.10;99.90
11540;DHT22;5826;54.756;9.192;2022-08-20T09:57:02;23.10;99.90
11540;DHT22;5826;54.756;9.192;2022-08-20T09:59:29;23.20;99.90
11540;DHT22;5826;54.756;9.192;2022-08-20T10:01:55;23.20;99.90
11540;DHT22;5826;54.756;9.192;2022-08-20T10:04:20;23.20;99.90
11540;DHT22;5826;54.756;9.192;2022-08-20T10:06:46;23.10;99.90
11540;DHT22;5826;54.756;9.192;2022-08-20T10:09:12;23.10;99.90
11540;DHT22;5826;54.756;9.192;2022-08-20T10:11:37;23.10;99.90
11540;DHT22;5826;54.756;9.192;2022-08-20T10:14:03;23.20;99.90
11540;DHT22;5826;54.756;9.192;2022-08-20T10:16:29;23.10;99.90
11540;DHT22;5826;54.756;9.192;2022-08-20T10:18:55;23.20;99.90
11540;DHT22;5826;54.756;9.192;2022-08-20T10:21:21;23.50;99.90
11540;DHT22;5826;54.756;9.192;2022-08-20T10:23:46;23.30;99.90
11540;DHT22;5826;54.756;9.192;2022-08-20T10:26:13;23.40;99.90
11540;DHT22;5826;54.756;9.192;2022-08-20T10:28:39;23.50;99.90
11540;DHT22;5826;54.756;9.192;2022-08-20T10:31:06;23.50;99.90
11540;DHT22;5826;54.756;9.192;2022-08-20T10:33:32;23.50;99.90
11540;DHT22;5826;54.756;9.192;2022-08-20T10:36:05;23.50;99.90
11540;DHT22;5826;54.756;9.192;2022-08-20T10:38:30;23.60;99.90
11540;DHT22;5826;54.756;9.192;2022-08-20T10:40:56;23.60;99.90
11540;DHT22;5826;54.756;9.192;2022-08-20T10:43:21;23.60;99.90
11540;DHT22;5826;54.756;9.192;2022-08-20T10:45:47;23.60;99.90
11540;DHT22;5826;54.756;9.192;2022-08-20T10:48:12;23.40;99.90
11540;DHT22;5826;54.756;9.192;2022-08-20T10:50:38;23.40;99.90
11540;DHT22;5826;54.756;9.192;2022-08-20T10:53:03;23.50;99.90
11540;DHT22;5826;54.756;9.192;2022-08-20T10:55:29;23.60;99.90
11540;DHT22;5826;54.756;9.192;2022-08-20T10:57:55;23.90;99.90
11540;DHT22;5826;54.756;9.192;2022-08-20T11:00:20;24.00;99.90
11540;DHT22;5826;54.756;9.192;2022-08-20T11:02:46;24.20;99.90
11540;DHT22;5826;54.756;9.192;2022-08-20T11:05:11;24.30;99.90
11540;DHT22;5826;54.756;9.192;2022-08-20T11:07:40;24.30;99.90
11540;DHT22;5826;54.756;9.192;2022-08-20T11:10:07;24.20;99.90
11540;DHT22;5826;54.756;9.192;2022-08-20T11:12:33;24.10;99.90
11540;DHT22;5826;54.756;9.192;2022-08-20T11:14:59;24.00;99.90
11540;DHT22;5826;54.756;9.192;2022-08-20T11:17:28;24.10;99.90
11540;DHT22;5826;54.756;9.192;2022-08-20T11:19:54;24.10;99.90
11540;DHT22;5826;54.756;9.192;2022-08-20T11:22:20;24.30;99.90
11540;DHT22;5826;54.756;9.192;2022-08-20T11:24:46;24.60;99.90
11540;DHT22;5826;54.756;9.192;2022-08-20T11:27:17;24.90;99.90
11540;DHT22;5826;54.756;9.192;2022-08-20T11:29:44;25.10;99.90
11540;DHT22;5826;54.756;9.192;2022-08-20T11:32:09;25.20;99.90
11540;DHT22;5826;54.756;9.192;2022-08-20T11:34:35;25.30;99.90
11540;DHT22;5826;54.756;9.192;2022-08-20T11:37:01;25.20;99.90
11540;DHT22;5826;54.756;9.192;2022-08-20T11:39:26;25.10;99.90
11540;DHT22;5826;54.756;9.192;2022-08-20T11:41:52;25.10;99.90
11540;DHT22;5826;54.756;9.192;2022-08-20T11:44:17;25.20;99.90
11540;DHT22;5826;54.756;9.192;2022-08-20T11:46:43;25.20;99.90
11540;DHT22;5826;54.756;9.192;2022-08-20T11:49:09;25.10;99.90
11540;DHT22;5826;54.756;9.192;2022-08-20T11:51:34;25.20;99.90
11540;DHT22;5826;54.756;9.192;2022-08-20T11:54:02;25.30;99.90
11540;DHT22;5826;54.756;9.192;2022-08-20T11:56:28;25.40;99.90
11540;DHT22;5826;54.756;9.192;2022-08-20T11:58:53;25.60;99.90
11540;DHT22;5826;54.756;9.192;2022-08-20T12:01:19;25.90;99.90
11540;DHT22;5826;54.756;9.192;2022-08-20T12:03:44;26.00;99.90
11540;DHT22;5826;54.756;9.192;2022-08-20T12:06:10;26.00;99.90
11540;DHT22;5826;54.756;9.192;2022-08-20T12:08:35;26.20;99.90
11540;DHT22;5826;54.756;9.192;2022-08-20T12:11:01;26.30;99.40
11540;DHT22;5826;54.756;9.192;2022-08-20T12:13:29;26.40;99.90
11540;DHT22;5826;54.756;9.192;2022-08-20T12:15:55;26.60;99.90
11540;DHT22;5826;54.756;9.192;2022-08-20T12:18:21;26.80;99.90
11540;DHT22;5826;54.756;9.192;2022-08-20T12:20:47;27.00;99.80
11540;DHT22;5826;54.756;9.192;2022-08-20T12:23:12;27.30;99.80
11540;DHT22;5826;54.756;9.192;2022-08-20T12:25:38;27.10;99.00
11540;DHT22;5826;54.756;9.192;2022-08-20T12:28:04;26.80;99.80
11540;DHT22;5826;54.756;9.192;2022-08-20T12:30:30;26.60;99.90
11540;DHT22;5826;54.756;9.192;2022-08-20T12:32:56;26.30;99.90
11540;DHT22;5826;54.756;9.192;2022-08-20T12:35:22;26.10;99.90
11540;DHT22;5826;54.756;9.192;2022-08-20T12:37:48;26.00;99.90
11540;DHT22;5826;54.756;9.192;2022-08-20T12:40:20;25.90;99.90
11540;DHT22;5826;54.756;9.192;2022-08-20T12:42:46;25.80;99.90
11540;DHT22;5826;54.756;9.192;2022-08-20T12:45:13;25.70;99.90
11540;DHT22;5826;54.756;9.192;2022-08-20T12:47:40;25.70;99.90
11540;DHT22;5826;54.756;9.192;2022-08-20T12:50:10;25.70;99.90
11540;DHT22;5826;54.756;9.192;2022-08-20T12:52:35;25.70;99.90
11540;DHT22;5826;54.756;9.192;2022-08-20T12:55:02;25.70;99.90
11540;DHT22;5826;54.756;9.192;2022-08-20T12:57:34;25.60;99.90
11540;DHT22;5826;54.756;9.192;2022-08-20T13:00:06;25.60;99.90
11540;DHT22;5826;54.756;9.192;2022-08-20T13:02:32;25.60;99.90
11540;DHT22;5826;54.756;9.192;2022-08-20T13:04:58;25.60;99.90
11540;DHT22;5826;54.756;9.192;2022-08-20T13:07:24;25.50;99.90
11540;DHT22;5826;54.756;9.192;2022-08-20T13:09:49;25.30;99.90
11540;DHT22;5826;54.756;9.192;2022-08-20T13:12:15;25.10;99.90
11540;DHT22;5826;54.756;9.192;2022-08-20T13:14:41;24.90;99.90
11540;DHT22;5826;54.756;9.192;2022-08-20T13:17:07;24.80;99.90
11540;DHT22;5826;54.756;9.192;2022-08-20T13:19:34;24.60;99.90
11540;DHT22;5826;54.756;9.192;2022-08-20T13:22:00;24.50;99.90
11540;DHT22;5826;54.756;9.192;2022-08-20T13:24:26;24.40;99.90
11540;DHT22;5826;54.756;9.192;2022-08-20T13:26:52;24.40;99.90
11540;DHT22;5826;54.756;9.192;2022-08-20T13:29:19;24.40;99.90
11540;DHT22;5826;54.756;9.192;2022-08-20T13:31:44;24.40;99.90
11540;DHT22;5826;54.756;9.192;2022-08-20T13:34:10;24.60;99.90
11540;DHT22;5826;54.756;9.192;2022-08-20T13:36:36;24.80;99.90
11540;DHT22;5826;54.756;9.192;2022-08-20T13:39:04;24.90;99.90
11540;DHT22;5826;54.756;9.192;2022-08-20T13:41:30;25.50;99.90
11540;DHT22;5826;54.756;9.192;2022-08-20T13:43:55;26.10;99.90
11540;DHT22;5826;54.756;9.192;2022-08-20T13:46:20;26.80;99.70
11540;DHT22;5826;54.756;9.192;2022-08-20T13:48:46;27.40;99.10
11540;DHT22;5826;54.756;9.192;2022-08-20T13:51:12;27.50;98.90
11540;DHT22;5826;54.756;9.192;2022-08-20T13:53:37;27.30;99.00
11540;DHT22;5826;54.756;9.192;2022-08-20T13:56:03;27.00;99.80
11540;DHT22;5826;54.756;9.192;2022-08-20T13:58:29;26.70;99.70
11540;DHT22;5826;54.756;9.192;2022-08-20T14:00:54;26.60;99.90
11540;DHT22;5826;54.756;9.192;2022-08-20T14:03:20;26.40;99.60
11540;DHT22;5826;54.756;9.192;2022-08-20T14:05:45;26.40;99.90
11540;DHT22;5826;54.756;9.192;2022-08-20T14:08:17;26.80;99.90
11540;DHT22;5826;54.756;9.192;2022-08-20T14:10:44;27.60;99.50
11540;DHT22;5826;54.756;9.192;2022-08-20T14:13:10;28.20;98.90
11540;DHT22;5826;54.756;9.192;2022-08-20T14:15:37;28.40;99.00
11540;DHT22;5826;54.756;9.192;2022-08-20T14:18:03;28.30;99.30
11540;DHT22;5826;54.756;9.192;2022-08-20T14:20:32;28.30;99.60
11540;DHT22;5826;54.756;9.192;2022-08-20T14:22:58;28.70;99.10
11540;DHT22;5826;54.756;9.192;2022-08-20T14:25:25;29.50;99.00
11540;DHT22;5826;54.756;9.192;2022-08-20T14:27:53;29.90;98.60
11540;DHT22;5826;54.756;9.192;2022-08-20T14:30:26;30.00;98.90
11540;DHT22;5826;54.756;9.192;2022-08-20T14:32:52;29.80;99.00
11540;DHT22;5826;54.756;9.192;2022-08-20T14:35:18;29.40;99.10
11540;DHT22;5826;54.756;9.192;2022-08-20T14:37:47;29.40;99.60
11540;DHT22;5826;54.756;9.192;2022-08-20T14:40:15;29.60;98.80
11540;DHT22;5826;54.756;9.192;2022-08-20T14:42:41;29.70;99.50
11540;DHT22;5826;54.756;9.192;2022-08-20T14:45:09;29.70;99.90
11540;DHT22;5826;54.756;9.192;2022-08-20T14:47:40;29.40;99.90
11540;DHT22;5826;54.756;9.192;2022-08-20T14:50:22;28.70;99.90
11540;DHT22;5826;54.756;9.192;2022-08-20T14:52:49;28.30;99.90
11540;DHT22;5826;54.756;9.192;2022-08-20T14:55:17;27.90;99.90
11540;DHT22;5826;54.756;9.192;2022-08-20T14:57:44;27.90;99.90
11540;DHT22;5826;54.756;9.192;2022-08-20T15:00:13;28.20;99.90
11540;DHT22;5826;54.756;9.192;2022-08-20T15:02:40;28.30;99.90
11540;DHT22;5826;54.756;9.192;2022-08-20T15:05:06;28.30;99.90
11540;DHT22;5826;54.756;9.192;2022-08-20T15:07:36;28.00;99.90
11540;DHT22;5826;54.756;9.192;2022-08-20T15:10:05;27.50;99.90
11540;DHT22;5826;54.756;9.192;2022-08-20T15:12:31;26.90;99.90
11540;DHT22;5826;54.756;9.192;2022-08-20T15:15:00;26.40;99.90
11540;DHT22;5826;54.756;9.192;2022-08-20T15:17:27;26.20;99.90
11540;DHT22;5826;54.756;9.192;2022-08-20T15:19:53;25.80;99.90
11540;DHT22;5826;54.756;9.192;2022-08-20T15:22:20;25.60;99.90
11540;DHT22;5826;54.756;9.192;2022-08-20T15:24:46;25.50;99.90
11540;DHT22;5826;54.756;9.192;2022-08-20T15:27:18;25.50;99.90
11540;DHT22;5826;54.756;9.192;2022-08-20T15:29:44;25.60;99.90
11540;DHT22;5826;54.756;9.192;2022-08-20T15:32:09;25.80;99.90
11540;DHT22;5826;54.756;9.192;2022-08-20T15:34:36;26.00;99.90
11540;DHT22;5826;54.756;9.192;2022-08-20T15:37:16;26.10;99.90
11540;DHT22;5826;54.756;9.192;2022-08-20T15:39:43;26.50;99.70
11540;DHT22;5826;54.756;9.192;2022-08-20T15:42:10;26.90;99.10
11540;DHT22;5826;54.756;9.192;2022-08-20T15:44:37;27.40;98.40
11540;DHT22;5826;54.756;9.192;2022-08-20T15:47:25;28.00;98.30
11540;DHT22;5826;54.756;9.192;2022-08-20T15:49:55;28.40;96.70